createdAt,value
2023-04-11T00:00:19.148Z,12.40
2023-04-11T00:02:46.807Z,12.40
2023-04-11T00:05:13.477Z,12.50
2023-04-11T00:07:40.115Z,12.60
2023-04-11T00:10:07.415Z,12.60
2023-04-11T00:12:33.966Z,12.60
2023-04-11T00:15:00.615Z,12.60
2023-04-11T00:17:28.806Z,12.60
2023-04-11T00:19:55.811Z,12.60
2023-04-11T00:22:24.055Z,12.60
2023-04-11T00:24:50.720Z,12.50
2023-04-11T00:27:17.181Z,12.50
2023-04-11T00:29:43.656Z,12.50
2023-04-11T00:32:10.223Z,12.40
2023-04-11T00:34:36.944Z,12.30
2023-04-11T00:37:03.538Z,12.30
2023-04-11T00:39:33.682Z,12.30
2023-04-11T00:42:07.772Z,12.30
2023-04-11T00:44:36.090Z,12.20
2023-04-11T00:47:05.323Z,12.30
2023-04-11T00:49:32.175Z,12.30
2023-04-11T00:51:59.873Z,12.40
2023-04-11T00:54:30.394Z,12.40
2023-04-11T00:56:59.605Z,12.30
2023-04-11T00:59:28.312Z,12.20
2023-04-11T01:01:55.227Z,12.20
2023-04-11T01:04:22.118Z,12.20
2023-04-11T01:06:52.986Z,12.20
2023-04-11T01:09:25.214Z,12.10
2023-04-11T01:11:51.968Z,12.20
2023-04-11T01:14:20.587Z,12.20
2023-04-11T01:16:48.543Z,12.30
2023-04-11T01:19:19.493Z,12.30
2023-04-11T01:21:51.672Z,12.30
2023-04-11T01:24:18.649Z,12.20
2023-04-11T01:26:46.184Z,12.20
2023-04-11T01:29:14.931Z,12.10
2023-04-11T01:31:41.626Z,12.20
2023-04-11T01:34:08.444Z,12.10
2023-04-11T01:36:35.032Z,12.10
2023-04-11T01:39:01.576Z,12.10
2023-04-11T01:41:30.233Z,12.00
2023-04-11T01:43:59.191Z,11.90
2023-04-11T01:46:26.107Z,11.90
2023-04-11T01:48:55.415Z,11.90
2023-04-11T01:51:22.270Z,11.90
2023-04-11T01:53:48.809Z,11.80
2023-04-11T01:56:15.564Z,11.80
2023-04-11T01:58:42.177Z,11.80
2023-04-11T02:01:09.168Z,11.80
2023-04-11T02:03:36.998Z,11.80
2023-04-11T02:06:04.116Z,11.80
2023-04-11T02:08:30.829Z,11.70
2023-04-11T02:10:57.397Z,11.70
2023-04-11T02:13:23.891Z,11.80
2023-04-11T02:15:50.497Z,11.80
2023-04-11T02:18:17.806Z,11.80
2023-04-11T02:20:44.402Z,11.90
2023-04-11T02:23:10.989Z,11.80
2023-04-11T02:25:39.256Z,11.80
2023-04-11T02:28:08.002Z,11.80
2023-04-11T02:30:34.765Z,11.80
2023-04-11T02:33:01.584Z,11.70
2023-04-11T02:35:28.199Z,11.70
2023-04-11T02:37:54.717Z,11.60
2023-04-11T02:40:22.514Z,11.60
2023-04-11T02:42:48.974Z,11.60
2023-04-11T02:45:16.946Z,11.60
2023-04-11T02:47:43.455Z,11.60
2023-04-11T02:50:11.149Z,11.60
2023-04-11T02:52:47.697Z,11.50
2023-04-11T02:55:15.057Z,11.50
2023-04-11T02:57:41.740Z,11.50
2023-04-11T03:00:11.950Z,11.40
2023-04-11T03:02:49.093Z,11.40
2023-04-11T03:05:20.039Z,11.30
2023-04-11T03:07:49.065Z,11.30
2023-04-11T03:10:15.624Z,11.30
2023-04-11T03:12:42.911Z,11.30
2023-04-11T03:15:11.187Z,11.30
2023-04-11T03:17:37.763Z,11.30
2023-04-11T03:20:07.180Z,11.30
2023-04-11T03:22:34.436Z,11.20
2023-04-11T03:25:01.087Z,11.20
2023-04-11T03:27:27.597Z,11.20
2023-04-11T03:29:58.902Z,11.20
2023-04-11T03:32:33.584Z,11.10
2023-04-11T03:35:01.368Z,11.10
2023-04-11T03:37:28.389Z,11.10
2023-04-11T03:39:54.893Z,11.10
2023-04-11T03:42:21.466Z,11.10
2023-04-11T03:44:52.666Z,11.00
2023-04-11T03:47:19.404Z,10.90
2023-04-11T03:49:45.930Z,10.90
2023-04-11T03:52:17.362Z,10.90
2023-04-11T03:54:47.790Z,10.80
2023-04-11T03:57:15.554Z,10.80
2023-04-11T03:59:42.135Z,10.90
2023-04-11T04:02:12.076Z,10.90
2023-04-11T04:04:47.158Z,10.80
2023-04-11T04:07:27.999Z,10.80
2023-04-11T04:10:04.824Z,10.90
2023-04-11T04:12:32.204Z,10.90
2023-04-11T04:15:17.665Z,10.90
2023-04-11T04:17:47.409Z,10.90
2023-04-11T04:20:34.268Z,10.80
2023-04-11T04:23:00.779Z,10.80
2023-04-11T04:25:42.269Z,10.70
2023-04-11T04:28:10.458Z,10.70
2023-04-11T04:30:39.334Z,10.70
2023-04-11T04:33:12.266Z,10.70
2023-04-11T04:35:43.028Z,10.70
2023-04-11T04:38:09.876Z,10.60
2023-04-11T04:40:50.510Z,10.60
2023-04-11T04:43:22.716Z,10.50
2023-04-11T04:45:58.804Z,10.50
2023-04-11T04:48:39.042Z,10.50
2023-04-11T04:51:07.577Z,10.60
2023-04-11T04:53:38.633Z,10.60
2023-04-11T04:56:07.175Z,10.50
2023-04-11T04:58:38.014Z,10.50
2023-04-11T05:01:09.462Z,10.50
2023-04-11T05:03:38.694Z,10.50
2023-04-11T05:06:09.838Z,10.50
2023-04-11T05:08:37.574Z,10.50
2023-04-11T05:11:06.484Z,10.50
2023-04-11T05:13:43.139Z,10.50
2023-04-11T05:16:12.309Z,10.50
2023-04-11T05:18:38.790Z,10.50
2023-04-11T05:21:05.764Z,10.50
2023-04-11T05:23:38.699Z,10.40
2023-04-11T05:26:07.549Z,10.40
2023-04-11T05:28:35.126Z,10.50
2023-04-11T05:31:06.338Z,10.40
2023-04-11T05:33:33.321Z,10.40
2023-04-11T05:36:00.653Z,10.40
2023-04-11T05:38:27.216Z,10.40
2023-04-11T05:40:53.725Z,10.40
2023-04-11T05:43:20.753Z,10.30
2023-04-11T05:45:48.012Z,10.30
2023-04-11T05:48:17.520Z,10.30
2023-04-11T05:50:44.014Z,10.40
2023-04-11T05:53:10.536Z,10.50
2023-04-11T05:55:37.473Z,10.50
2023-04-11T05:58:04.807Z,10.50
2023-04-11T06:00:32.200Z,10.40
2023-04-11T06:03:01.872Z,10.40
2023-04-11T06:05:31.408Z,10.60
2023-04-11T06:07:59.603Z,10.80
2023-04-11T06:10:26.510Z,10.90
2023-04-11T06:12:56.481Z,11.00
2023-04-11T06:15:24.463Z,10.90
2023-04-11T06:17:51.156Z,10.90
2023-04-11T06:20:17.930Z,10.80
2023-04-11T06:22:46.256Z,10.90
2023-04-11T06:25:13.044Z,11.00
2023-04-11T06:27:39.563Z,11.10
2023-04-11T06:30:06.919Z,11.20
2023-04-11T06:32:33.459Z,11.30
2023-04-11T06:34:59.980Z,11.30
2023-04-11T06:37:27.108Z,11.20
2023-04-11T06:39:53.598Z,11.20
2023-04-11T06:42:20.125Z,11.30
2023-04-11T06:44:50.920Z,11.40
2023-04-11T06:47:17.400Z,11.40
2023-04-11T06:49:43.843Z,11.30
2023-04-11T06:52:10.375Z,11.40
2023-04-11T06:54:36.846Z,11.50
2023-04-11T06:57:03.581Z,11.40
2023-04-11T06:59:30.031Z,11.40
2023-04-11T07:01:56.578Z,11.40
2023-04-11T07:04:23.361Z,11.50
2023-04-11T07:06:50.013Z,11.50
2023-04-11T07:09:16.680Z,11.40
2023-04-11T07:11:43.191Z,11.40
2023-04-11T07:14:09.693Z,11.40
2023-04-11T07:16:36.379Z,11.40
2023-04-11T07:19:03.273Z,11.30
2023-04-11T07:21:31.894Z,11.20
2023-04-11T07:24:00.539Z,11.20
2023-04-11T07:26:32.149Z,11.30
2023-04-11T07:29:02.244Z,11.30
2023-04-11T07:31:28.917Z,11.40
2023-04-11T07:33:55.971Z,11.40
2023-04-11T07:36:22.794Z,11.60
2023-04-11T07:38:49.298Z,11.50
2023-04-11T07:41:16.358Z,11.60
2023-04-11T07:43:43.039Z,11.70
2023-04-11T07:46:09.706Z,11.70
2023-04-11T07:48:36.337Z,11.90
2023-04-11T07:51:02.894Z,12.10
2023-04-11T07:53:31.112Z,12.30
2023-04-11T07:55:57.566Z,12.40
2023-04-11T07:58:24.033Z,12.40
2023-04-11T08:00:51.196Z,12.70
2023-04-11T08:03:17.977Z,12.70
2023-04-11T08:05:44.775Z,12.70
2023-04-11T08:08:11.394Z,12.70
2023-04-11T08:10:37.904Z,12.80
2023-04-11T08:13:04.407Z,12.90
2023-04-11T08:15:31.414Z,12.90
2023-04-11T08:17:59.627Z,12.90
2023-04-11T08:20:26.332Z,13.00
2023-04-11T08:22:52.959Z,13.00
2023-04-11T08:25:25.412Z,12.90
2023-04-11T08:27:52.465Z,12.80
2023-04-11T08:30:19.016Z,12.80
2023-04-11T08:32:45.679Z,13.10
2023-04-11T08:35:12.249Z,13.30
2023-04-11T08:37:39.297Z,13.30
2023-04-11T08:40:06.910Z,13.10
2023-04-11T08:42:34.208Z,13.00
2023-04-11T08:45:05.093Z,13.00
2023-04-11T08:47:31.988Z,13.10
2023-04-11T08:49:58.498Z,13.30
2023-04-11T08:52:25.755Z,13.50
2023-04-11T08:54:55.025Z,13.60
2023-04-11T08:57:31.353Z,13.80
2023-04-11T09:00:00.445Z,13.80
2023-04-11T09:02:27.793Z,13.80
2023-04-11T09:04:54.997Z,14.00
2023-04-11T09:07:21.980Z,14.20
2023-04-11T09:09:48.495Z,14.30
2023-04-11T09:12:15.250Z,14.40
2023-04-11T09:14:42.047Z,14.60
2023-04-11T09:17:16.822Z,14.70
2023-04-11T09:19:44.066Z,14.70
2023-04-11T09:22:12.681Z,14.50
2023-04-11T09:24:39.211Z,14.60
2023-04-11T09:27:07.028Z,14.80
2023-04-11T09:29:38.411Z,14.80
2023-04-11T09:32:05.478Z,14.70
2023-04-11T09:34:34.040Z,14.90
2023-04-11T09:37:02.047Z,14.90
2023-04-11T09:39:29.518Z,15.00
2023-04-11T09:41:56.950Z,15.00
2023-04-11T09:44:38.870Z,15.00
2023-04-11T09:47:05.680Z,14.90
2023-04-11T09:49:34.191Z,14.80
2023-04-11T09:52:01.338Z,14.70
2023-04-11T09:54:28.801Z,14.80
2023-04-11T09:56:57.114Z,14.60
2023-04-11T09:59:26.158Z,14.60
2023-04-11T10:01:53.372Z,14.40
2023-04-11T10:04:21.262Z,14.30
2023-04-11T10:07:02.002Z,14.10
2023-04-11T10:09:31.263Z,13.80
2023-04-11T10:11:57.749Z,13.60
2023-04-11T10:14:39.516Z,13.50
2023-04-11T10:17:22.531Z,13.50
2023-04-11T10:19:51.409Z,13.60
2023-04-11T10:22:48.780Z,13.70
2023-04-11T10:25:16.881Z,13.80
2023-04-11T10:27:53.392Z,14.00
2023-04-11T10:30:41.706Z,14.20
2023-04-11T10:33:11.758Z,14.10
2023-04-11T10:36:15.323Z,14.00
2023-04-11T10:38:44.505Z,13.70
2023-04-11T10:41:27.209Z,13.70
2023-04-11T10:44:13.196Z,13.40
2023-04-11T10:46:54.117Z,13.20
2023-04-11T10:49:38.008Z,12.90
2023-04-11T10:52:18.523Z,12.80
2023-04-11T10:54:48.427Z,13.00
2023-04-11T10:57:15.032Z,13.00
2023-04-11T10:59:44.225Z,13.10
2023-04-11T11:02:11.216Z,13.00
2023-04-11T11:04:39.222Z,13.00
2023-04-11T11:07:14.183Z,13.20
2023-04-11T11:09:40.824Z,13.30
2023-04-11T11:12:15.009Z,13.30
2023-04-11T11:14:47.232Z,13.40
2023-04-11T11:17:15.706Z,13.60
2023-04-11T11:19:49.440Z,13.80
2023-04-11T11:22:18.062Z,14.00
2023-04-11T11:24:46.953Z,14.10
2023-04-11T11:27:23.945Z,14.30
2023-04-11T11:29:54.467Z,14.50
2023-04-11T11:32:24.945Z,14.50
2023-04-11T11:34:52.991Z,14.40
2023-04-11T11:37:19.602Z,14.40
2023-04-11T11:39:46.329Z,14.50
2023-04-11T11:42:13.062Z,14.60
2023-04-11T11:44:39.716Z,14.70
2023-04-11T11:47:09.029Z,14.80
2023-04-11T11:49:55.403Z,14.90
2023-04-11T11:52:41.946Z,14.90
2023-04-11T11:55:22.311Z,15.00
2023-04-11T11:57:50.014Z,15.10
2023-04-11T12:00:24.550Z,15.20
2023-04-11T12:02:53.207Z,15.30
2023-04-11T12:05:20.400Z,15.30
2023-04-11T12:07:46.981Z,15.50
2023-04-11T12:10:17.074Z,15.70
2023-04-11T12:12:53.376Z,15.90
2023-04-11T12:15:22.977Z,16.00
2023-04-11T12:17:53.885Z,16.20
2023-04-11T12:20:27.487Z,16.10
2023-04-11T12:22:55.063Z,15.90
2023-04-11T12:25:22.630Z,15.90
2023-04-11T12:27:49.086Z,16.20
2023-04-11T12:30:15.701Z,16.40
2023-04-11T12:32:43.005Z,16.60
2023-04-11T12:35:10.603Z,16.80
2023-04-11T12:37:37.540Z,16.80
2023-04-11T12:40:12.172Z,16.80
2023-04-11T12:42:53.580Z,16.70
2023-04-11T12:45:23.148Z,16.40
2023-04-11T12:47:49.828Z,16.20
2023-04-11T12:50:16.437Z,16.30
2023-04-11T12:52:42.954Z,16.40
2023-04-11T12:55:09.930Z,16.70
2023-04-11T12:57:36.630Z,16.80
2023-04-11T13:00:11.562Z,16.70
2023-04-11T13:02:43.256Z,16.60
2023-04-11T13:05:14.234Z,16.40
2023-04-11T13:07:42.154Z,16.50
2023-04-11T13:10:09.387Z,16.60
2023-04-11T13:12:45.610Z,16.60
2023-04-11T13:15:14.333Z,16.20
2023-04-11T13:17:41.071Z,15.90
2023-04-11T13:20:10.082Z,15.70
2023-04-11T13:22:38.122Z,15.50
2023-04-11T13:25:05.132Z,15.50
2023-04-11T13:27:32.079Z,15.70
2023-04-11T13:29:58.625Z,15.70
2023-04-11T13:32:25.276Z,15.70
2023-04-11T13:34:52.028Z,15.60
2023-04-11T13:37:18.506Z,15.80
2023-04-11T13:39:45.067Z,15.90
2023-04-11T13:42:12.669Z,16.00
2023-04-11T13:44:39.220Z,16.10
2023-04-11T13:47:06.050Z,16.30
2023-04-11T13:49:32.534Z,16.50
2023-04-11T13:51:59.054Z,16.60
2023-04-11T13:54:26.125Z,16.80
2023-04-11T13:56:52.642Z,17.00
2023-04-11T13:59:19.073Z,17.10
2023-04-11T14:01:45.748Z,17.10
2023-04-11T14:04:12.443Z,16.90
2023-04-11T14:06:39.655Z,17.00
2023-04-11T14:09:06.146Z,17.30
2023-04-11T14:11:32.678Z,17.40
2023-04-11T14:13:59.130Z,17.40
2023-04-11T14:16:25.689Z,17.40
2023-04-11T14:18:52.225Z,17.20
2023-04-11T14:21:18.985Z,17.10
2023-04-11T14:23:45.461Z,17.20
2023-04-11T14:26:12.032Z,17.30
2023-04-11T14:28:38.535Z,17.50
2023-04-11T14:31:05.481Z,17.60
2023-04-11T14:33:32.189Z,17.60
2023-04-11T14:35:58.676Z,17.60
2023-04-11T14:38:25.312Z,17.40
2023-04-11T14:40:51.922Z,17.20
2023-04-11T14:43:18.414Z,17.10
2023-04-11T14:45:44.985Z,17.00
2023-04-11T14:48:11.676Z,16.90
2023-04-11T14:50:38.138Z,16.90
2023-04-11T14:53:04.712Z,17.00
2023-04-11T14:55:31.227Z,17.00
2023-04-11T14:57:57.764Z,17.00
2023-04-11T15:00:24.839Z,17.00
2023-04-11T15:02:53.868Z,17.00
2023-04-11T15:05:22.486Z,17.00
2023-04-11T15:07:51.435Z,17.10
2023-04-11T15:10:20.509Z,17.10
2023-04-11T15:12:47.096Z,17.10
2023-04-11T15:15:14.102Z,17.00
2023-04-11T15:18:09.882Z,17.00
2023-04-11T15:20:36.459Z,16.90
2023-04-11T15:23:03.094Z,16.90
2023-04-11T15:25:29.643Z,16.90
2023-04-11T15:27:56.294Z,16.80
2023-04-11T15:30:22.911Z,16.80
2023-04-11T15:32:49.481Z,16.90
2023-04-11T15:35:16.083Z,16.90
2023-04-11T15:37:42.617Z,17.00
2023-04-11T15:40:11.835Z,17.00
2023-04-11T15:42:38.395Z,17.10
2023-04-11T15:45:05.368Z,17.10
2023-04-11T15:47:33.392Z,17.20
2023-04-11T15:50:02.650Z,17.20
2023-04-11T15:52:29.367Z,17.10
2023-04-11T15:54:56.734Z,17.00
2023-04-11T15:57:23.215Z,16.90
2023-04-11T15:59:49.729Z,16.80
2023-04-11T16:02:16.541Z,16.70
2023-04-11T16:04:45.431Z,16.50
2023-04-11T16:07:14.246Z,16.40
2023-04-11T16:09:40.796Z,16.30
2023-04-11T16:12:07.460Z,16.20
2023-04-11T16:14:33.952Z,16.10
2023-04-11T16:17:00.544Z,16.00
2023-04-11T16:19:27.021Z,16.00
2023-04-11T16:21:57.041Z,16.00
2023-04-11T16:24:25.916Z,15.90
2023-04-11T16:26:52.567Z,15.90
2023-04-11T16:29:19.091Z,15.90
2023-04-11T16:31:45.719Z,15.80
2023-04-11T16:34:12.230Z,15.70
2023-04-11T16:36:38.801Z,15.60
2023-04-11T16:39:05.580Z,15.60
2023-04-11T16:41:36.377Z,15.50
2023-04-11T16:44:11.023Z,15.50
2023-04-11T16:46:41.573Z,15.50
2023-04-11T16:49:08.352Z,15.30
2023-04-11T16:51:36.520Z,15.30
2023-04-11T16:54:10.156Z,15.20
2023-04-11T16:56:37.408Z,15.20
2023-04-11T16:59:04.905Z,15.10
2023-04-11T17:01:31.877Z,15.10
2023-04-11T17:03:58.967Z,15.10
2023-04-11T17:06:27.035Z,15.10
2023-04-11T17:08:53.732Z,15.00
2023-04-11T17:11:20.431Z,14.90
2023-04-11T17:13:48.641Z,14.80
2023-04-11T17:16:18.693Z,14.80
2023-04-11T17:18:45.276Z,14.80
2023-04-11T17:21:11.809Z,14.80
2023-04-11T17:23:43.119Z,14.70
2023-04-11T17:26:10.902Z,14.70
2023-04-11T17:28:38.537Z,14.60
2023-04-11T17:31:16.316Z,14.60
2023-04-11T17:33:43.408Z,14.50
2023-04-11T17:36:12.162Z,14.40
2023-04-11T17:38:39.294Z,14.40
2023-04-11T17:41:14.481Z,14.30
2023-04-11T17:43:41.867Z,14.30
2023-04-11T17:46:08.911Z,14.30
2023-04-11T17:48:36.797Z,14.30
2023-04-11T17:51:06.753Z,14.30
2023-04-11T17:53:33.565Z,14.30
2023-04-11T17:56:04.445Z,14.30
2023-04-11T17:58:31.803Z,14.30
2023-04-11T18:00:58.347Z,14.20
2023-04-11T18:03:26.073Z,14.20
2023-04-11T18:05:54.230Z,14.10
2023-04-11T18:08:26.549Z,14.10
2023-04-11T18:11:00.122Z,14.10
2023-04-11T18:13:27.499Z,14.10
2023-04-11T18:15:54.234Z,14.00
2023-04-11T18:18:20.849Z,14.00
2023-04-11T18:20:47.583Z,13.90
2023-04-11T18:23:14.094Z,13.90
2023-04-11T18:25:40.604Z,13.90
2023-04-11T18:28:07.194Z,13.90
2023-04-11T18:30:33.686Z,13.90
2023-04-11T18:33:00.298Z,13.90
2023-04-11T18:35:28.590Z,13.80
2023-04-11T18:37:55.756Z,13.70
2023-04-11T18:40:22.353Z,13.70
2023-04-11T18:42:51.622Z,13.70
2023-04-11T18:45:22.323Z,13.70
2023-04-11T18:47:49.704Z,13.70
2023-04-11T18:50:17.291Z,13.70
2023-04-11T18:52:45.266Z,13.60
2023-04-11T18:55:12.602Z,13.60
2023-04-11T18:57:39.390Z,13.50
2023-04-11T19:00:18.631Z,13.50
2023-04-11T19:02:46.830Z,13.50
2023-04-11T19:05:14.330Z,13.40
2023-04-11T19:07:42.410Z,13.40
2023-04-11T19:10:10.811Z,13.40
2023-04-11T19:12:38.080Z,13.40
2023-04-11T19:15:07.687Z,13.30
2023-04-11T19:17:38.591Z,13.30
2023-04-11T19:20:16.615Z,13.30
2023-04-11T19:22:43.494Z,13.20
2023-04-11T19:25:11.324Z,13.20
2023-04-11T19:27:42.370Z,13.20
2023-04-11T19:30:10.767Z,13.20
2023-04-11T19:32:40.608Z,13.20
2023-04-11T19:35:10.250Z,13.20
2023-04-11T19:37:37.152Z,13.20
2023-04-11T19:40:07.659Z,13.20
2023-04-11T19:42:37.199Z,13.20
2023-04-11T19:45:04.703Z,13.30
2023-04-11T19:47:31.714Z,13.20
2023-04-11T19:50:00.655Z,13.20
2023-04-11T19:52:28.031Z,13.20
2023-04-11T19:54:56.510Z,13.20
2023-04-11T19:57:24.755Z,13.10
2023-04-11T19:59:51.272Z,13.10
2023-04-11T20:02:17.871Z,13.10
2023-04-11T20:04:45.754Z,13.10
2023-04-11T20:07:13.361Z,13.10
2023-04-11T20:09:39.857Z,13.20
2023-04-11T20:12:06.678Z,13.20
2023-04-11T20:14:33.571Z,13.10
2023-04-11T20:17:00.160Z,13.10
2023-04-11T20:19:28.405Z,13.20
2023-04-11T20:21:55.693Z,13.20
2023-04-11T20:24:22.224Z,13.20
2023-04-11T20:26:48.673Z,13.10
2023-04-11T20:29:17.769Z,13.10
2023-04-11T20:31:44.564Z,13.10
2023-04-11T20:34:11.531Z,13.10
2023-04-11T20:36:38.298Z,13.10
2023-04-11T20:39:05.181Z,13.00
2023-04-11T20:41:32.246Z,13.00
2023-04-11T20:43:59.373Z,13.00
2023-04-11T20:46:29.830Z,13.00
2023-04-11T20:48:56.692Z,12.90
2023-04-11T20:51:23.424Z,12.90
2023-04-11T20:53:49.880Z,12.90
2023-04-11T20:56:16.475Z,12.90
2023-04-11T20:58:43.623Z,12.90
2023-04-11T21:01:10.259Z,12.90
2023-04-11T21:03:38.393Z,13.00
2023-04-11T21:06:07.451Z,12.90
2023-04-11T21:08:37.176Z,12.80
2023-04-11T21:11:04.901Z,12.80
2023-04-11T21:13:31.438Z,12.80
2023-04-11T21:15:58.404Z,12.90
2023-04-11T21:18:25.454Z,12.90
2023-04-11T21:20:51.956Z,12.80
2023-04-11T21:23:18.520Z,12.70
2023-04-11T21:25:44.963Z,12.70
2023-04-11T21:28:11.430Z,12.70
2023-04-11T21:30:39.384Z,12.70
2023-04-11T21:33:05.970Z,12.70
2023-04-11T21:35:32.636Z,12.70
2023-04-11T21:37:59.163Z,12.60
2023-04-11T21:40:25.649Z,12.60
2023-04-11T21:42:52.165Z,12.60
2023-04-11T21:45:18.708Z,12.60
2023-04-11T21:47:46.626Z,12.60
2023-04-11T21:50:13.380Z,12.70
2023-04-11T21:52:40.024Z,12.70
2023-04-11T21:55:08.828Z,12.70
2023-04-11T21:57:35.971Z,12.60
2023-04-11T22:00:02.620Z,12.70
2023-04-11T22:02:38.818Z,12.70
2023-04-11T22:05:07.653Z,12.60
2023-04-11T22:07:38.647Z,12.70
2023-04-11T22:10:09.767Z,12.70
2023-04-11T22:12:36.734Z,12.80
2023-04-11T22:15:05.201Z,12.80
2023-04-11T22:17:32.172Z,12.80
2023-04-11T22:19:58.732Z,12.90
2023-04-11T22:22:30.045Z,12.90
2023-04-11T22:25:00.124Z,12.80
2023-04-11T22:27:27.186Z,12.70
2023-04-11T22:29:57.288Z,12.80
2023-04-11T22:32:24.069Z,12.70
2023-04-11T22:34:50.583Z,12.70
2023-04-11T22:37:17.152Z,12.70
2023-04-11T22:39:43.671Z,12.70
2023-04-11T22:42:11.440Z,12.70
2023-04-11T22:44:37.938Z,12.60
2023-04-11T22:47:07.178Z,12.60
2023-04-11T22:49:40.810Z,12.60
2023-04-11T22:52:14.744Z,12.60
2023-04-11T22:54:42.553Z,12.60
2023-04-11T22:57:09.267Z,12.50
2023-04-11T22:59:36.468Z,12.60
2023-04-11T23:02:03.045Z,12.50
2023-04-11T23:04:31.552Z,12.50
2023-04-11T23:06:58.149Z,12.50
2023-04-11T23:09:24.722Z,12.50
2023-04-11T23:11:51.168Z,12.50
2023-04-11T23:14:18.181Z,12.50
2023-04-11T23:16:45.105Z,12.40
2023-04-11T23:19:12.136Z,12.30
2023-04-11T23:21:38.632Z,12.30
2023-04-11T23:24:06.857Z,12.20
2023-04-11T23:26:33.436Z,12.10
2023-04-11T23:29:02.181Z,12.00
2023-04-11T23:31:29.114Z,11.90
2023-04-11T23:33:56.067Z,11.90
2023-04-11T23:36:22.768Z,11.80
2023-04-11T23:38:49.309Z,11.70
2023-04-11T23:41:15.804Z,11.60
2023-04-11T23:43:42.347Z,11.40
2023-04-11T23:46:08.968Z,11.30
2023-04-11T23:48:35.840Z,11.30
2023-04-11T23:51:02.364Z,11.20
2023-04-11T23:53:28.854Z,11.20
2023-04-11T23:55:55.364Z,11.30
2023-04-11T23:58:21.831Z,11.20
